createdAt,value
2023-02-04T00:01:41.649Z,60.65
2023-02-04T00:04:09.089Z,60.73
2023-02-04T00:06:36.246Z,60.36
2023-02-04T00:09:03.736Z,59.28
2023-02-04T00:11:31.152Z,59.59
2023-02-04T00:13:58.308Z,60.49
2023-02-04T00:16:25.558Z,60.11
2023-02-04T00:18:53.056Z,59.41
2023-02-04T00:21:20.207Z,59.50
2023-02-04T00:23:47.460Z,60.78
2023-02-04T00:26:14.898Z,59.21
2023-02-04T00:28:42.401Z,60.22
2023-02-04T00:31:10.959Z,59.58
2023-02-04T00:33:39.875Z,58.89
2023-02-04T00:36:07.071Z,59.87
2023-02-04T00:38:34.281Z,59.98
2023-02-04T00:41:01.733Z,59.92
2023-02-04T00:43:28.910Z,60.51
2023-02-04T00:45:56.123Z,59.36
2023-02-04T00:48:24.957Z,59.24
2023-02-04T00:50:54.323Z,59.78
2023-02-04T00:53:21.536Z,60.10
2023-02-04T00:55:48.981Z,59.00
2023-02-04T00:58:16.182Z,60.26
2023-02-04T01:00:43.422Z,59.20
2023-02-04T01:03:10.952Z,59.82
2023-02-04T01:05:38.190Z,59.22
2023-02-04T01:08:05.426Z,60.32
2023-02-04T01:10:33.063Z,60.97
2023-02-04T01:13:01.820Z,60.06
2023-02-04T01:15:29.702Z,59.14
2023-02-04T01:17:57.339Z,58.98
2023-02-04T01:20:24.516Z,58.30
2023-02-04T01:22:51.684Z,58.51
2023-02-04T01:25:20.097Z,60.69
2023-02-04T01:27:47.407Z,61.25
2023-02-04T01:30:15.239Z,61.67
2023-02-04T01:32:42.656Z,60.29
2023-02-04T01:35:09.847Z,59.87
2023-02-04T01:37:37.066Z,59.72
2023-02-04T01:40:04.662Z,60.09
2023-02-04T01:42:31.887Z,60.36
2023-02-04T01:44:59.063Z,60.10
2023-02-04T01:47:26.530Z,60.17
2023-02-04T01:49:54.250Z,58.78
2023-02-04T01:52:21.935Z,58.92
2023-02-04T01:54:51.446Z,58.99
2023-02-04T01:57:18.664Z,57.42
2023-02-04T01:59:46.299Z,57.71
2023-02-04T02:02:32.645Z,57.18
2023-02-04T02:05:00.160Z,56.93
2023-02-04T02:07:27.374Z,56.63
2023-02-04T02:09:54.747Z,57.38
2023-02-04T02:12:22.146Z,56.80
2023-02-04T02:14:49.331Z,56.45
2023-02-04T02:17:16.755Z,56.26
2023-02-04T02:19:43.902Z,56.03
2023-02-04T02:22:14.774Z,56.48
2023-02-04T02:24:42.219Z,56.69
2023-02-04T02:27:09.798Z,56.87
2023-02-04T02:29:37.653Z,56.02
2023-02-04T02:32:05.074Z,57.32
2023-02-04T02:34:32.255Z,57.98
2023-02-04T02:36:59.489Z,57.45
2023-02-04T02:39:26.930Z,57.07
2023-02-04T02:41:54.809Z,56.36
2023-02-04T02:44:22.339Z,55.03
2023-02-04T02:46:49.799Z,56.78
2023-02-04T02:49:17.355Z,56.50
2023-02-04T02:51:44.716Z,55.14
2023-02-04T02:54:25.135Z,57.38
2023-02-04T02:56:53.364Z,57.59
2023-02-04T02:59:22.375Z,56.44
2023-02-04T03:01:51.164Z,56.61
2023-02-04T03:04:18.875Z,57.64
2023-02-04T03:06:46.323Z,57.37
2023-02-04T03:09:13.642Z,55.90
2023-02-04T03:11:40.782Z,56.32
2023-02-04T03:14:08.225Z,57.27
2023-02-04T03:16:36.863Z,56.78
2023-02-04T03:19:04.296Z,54.97
2023-02-04T03:21:32.161Z,56.40
2023-02-04T03:23:59.374Z,56.55
2023-02-04T03:26:26.746Z,55.70
2023-02-04T03:28:54.465Z,58.10
2023-02-04T03:31:21.929Z,56.09
2023-02-04T03:33:49.145Z,57.28
2023-02-04T03:36:16.945Z,57.21
2023-02-04T03:38:44.158Z,56.52
2023-02-04T03:41:11.295Z,56.98
2023-02-04T03:43:38.840Z,58.17
2023-02-04T03:46:06.225Z,59.54
2023-02-04T03:48:33.410Z,59.94
2023-02-04T03:51:00.958Z,61.34
2023-02-04T03:53:28.143Z,61.39
2023-02-04T03:55:55.337Z,61.22
2023-02-04T03:58:22.872Z,59.66
2023-02-04T04:00:50.075Z,60.43
2023-02-04T04:03:17.523Z,59.29
2023-02-04T04:05:44.700Z,57.67
2023-02-04T04:08:11.879Z,60.58
2023-02-04T04:10:41.146Z,61.33
2023-02-04T04:13:09.128Z,62.04
2023-02-04T04:15:36.340Z,61.64
2023-02-04T04:18:04.747Z,61.11
2023-02-04T04:20:32.141Z,60.03
2023-02-04T04:22:59.500Z,61.31
2023-02-04T04:25:26.934Z,60.94
2023-02-04T04:27:54.156Z,59.47
2023-02-04T04:30:21.431Z,60.11
2023-02-04T04:32:49.152Z,59.32
2023-02-04T04:35:16.302Z,59.10
2023-02-04T04:37:43.472Z,59.50
2023-02-04T04:40:12.065Z,58.00
2023-02-04T04:42:39.285Z,55.98
2023-02-04T04:45:07.609Z,57.29
2023-02-04T04:47:35.006Z,57.04
2023-02-04T04:50:02.254Z,57.42
2023-02-04T04:52:29.395Z,58.24
2023-02-04T04:54:56.845Z,57.39
2023-02-04T04:57:24.023Z,59.50
2023-02-04T04:59:51.258Z,58.27
2023-02-04T05:02:18.650Z,59.19
2023-02-04T05:04:45.870Z,57.83
2023-02-04T05:07:13.062Z,57.79
2023-02-04T05:09:40.530Z,58.49
2023-02-04T05:12:07.721Z,58.04
2023-02-04T05:14:34.904Z,58.53
2023-02-04T05:17:02.365Z,58.53
2023-02-04T05:19:29.568Z,58.11
2023-02-04T05:21:57.581Z,58.69
2023-02-04T05:24:25.059Z,58.19
2023-02-04T05:26:52.226Z,58.44
2023-02-04T05:29:19.375Z,58.56
2023-02-04T05:31:46.840Z,58.20
2023-02-04T05:34:14.018Z,59.06
2023-02-04T05:36:41.184Z,58.45
2023-02-04T05:39:08.730Z,57.14
2023-02-04T05:41:35.882Z,58.95
2023-02-04T05:44:03.027Z,59.92
2023-02-04T05:46:30.432Z,61.58
2023-02-04T05:48:57.608Z,62.37
2023-02-04T05:51:24.734Z,63.88
2023-02-04T05:53:52.173Z,64.76
2023-02-04T05:56:19.378Z,66.38
2023-02-04T05:58:47.046Z,63.48
2023-02-04T06:01:14.455Z,63.65
2023-02-04T06:03:42.002Z,63.35
2023-02-04T06:06:09.210Z,63.01
2023-02-04T06:08:36.352Z,63.14
2023-02-04T06:11:03.810Z,62.05
2023-02-04T06:13:30.928Z,62.26
2023-02-04T06:15:58.084Z,61.87
2023-02-04T06:18:25.584Z,61.59
2023-02-04T06:20:52.756Z,62.04
2023-02-04T06:23:19.894Z,61.10
2023-02-04T06:25:48.888Z,61.86
2023-02-04T06:28:16.128Z,61.28
2023-02-04T06:30:44.285Z,60.64
2023-02-04T06:33:11.832Z,60.72
2023-02-04T06:35:38.988Z,60.89
2023-02-04T06:38:06.221Z,61.01
2023-02-04T06:40:33.920Z,60.50
2023-02-04T06:43:01.209Z,58.55
2023-02-04T06:45:28.580Z,60.02
2023-02-04T06:47:55.991Z,59.54
2023-02-04T06:50:23.165Z,58.39
2023-02-04T06:52:50.335Z,59.21
2023-02-04T06:55:17.814Z,57.89
2023-02-04T06:57:44.988Z,58.60
2023-02-04T07:00:12.852Z,57.05
2023-02-04T07:02:40.414Z,56.63
2023-02-04T07:05:07.755Z,56.46
2023-02-04T07:07:34.958Z,56.05
2023-02-04T07:10:02.405Z,55.85
2023-02-04T07:12:29.565Z,55.80
2023-02-04T07:14:56.785Z,56.32
2023-02-04T07:17:24.194Z,59.10
2023-02-04T07:19:51.391Z,59.10
2023-02-04T07:22:18.665Z,59.56
2023-02-04T07:24:46.173Z,60.06
2023-02-04T07:27:13.484Z,60.50
2023-02-04T07:29:40.685Z,59.60
2023-02-04T07:32:08.278Z,60.02
2023-02-04T07:34:36.049Z,60.54
2023-02-04T07:37:03.326Z,59.41
2023-02-04T07:39:30.846Z,58.35
2023-02-04T07:41:57.988Z,55.87
2023-02-04T07:44:25.408Z,53.49
2023-02-04T07:46:52.841Z,51.56
2023-02-04T07:49:19.983Z,50.46
2023-02-04T07:51:47.176Z,50.35
2023-02-04T07:54:14.591Z,50.89
2023-02-04T07:56:41.747Z,51.80
2023-02-04T07:59:08.966Z,51.87
2023-02-04T08:01:36.470Z,51.74
2023-02-04T08:04:04.024Z,52.94
2023-02-04T08:06:31.241Z,53.85
2023-02-04T08:08:58.427Z,53.87
2023-02-04T08:11:27.094Z,53.26
2023-02-04T08:13:54.299Z,54.76
2023-02-04T08:16:21.508Z,53.67
2023-02-04T08:18:48.954Z,55.01
2023-02-04T08:21:16.822Z,53.19
2023-02-04T08:23:44.598Z,54.17
2023-02-04T08:26:12.213Z,52.86
2023-02-04T08:28:39.418Z,52.73
2023-02-04T08:31:07.157Z,52.61
2023-02-04T08:33:34.768Z,51.92
2023-02-04T08:36:01.992Z,52.80
2023-02-04T08:38:29.312Z,53.67
2023-02-04T08:40:56.912Z,53.19
2023-02-04T08:43:24.143Z,53.61
2023-02-04T08:45:51.280Z,53.24
2023-02-04T08:48:18.697Z,52.68
2023-02-04T08:50:45.881Z,53.27
2023-02-04T08:53:13.028Z,52.84
2023-02-04T08:55:40.482Z,52.81
2023-02-04T08:58:07.696Z,51.73
2023-02-04T09:00:35.383Z,53.67
2023-02-04T09:03:03.140Z,53.53
2023-02-04T09:05:30.348Z,52.40
2023-02-04T09:07:57.521Z,51.50
2023-02-04T09:10:25.045Z,52.04
2023-02-04T09:12:56.062Z,51.47
2023-02-04T09:15:24.368Z,50.32
2023-02-04T09:17:53.855Z,49.80
2023-02-04T09:20:21.762Z,49.35
2023-02-04T09:22:50.323Z,48.35
2023-02-04T09:25:17.745Z,44.79
2023-02-04T09:27:44.987Z,44.90
2023-02-04T09:30:12.478Z,44.10
2023-02-04T09:32:39.888Z,43.94
2023-02-04T09:35:07.106Z,41.72
2023-02-04T09:37:34.264Z,43.51
2023-02-04T09:40:01.759Z,44.19
2023-02-04T09:42:28.923Z,41.35
2023-02-04T09:44:56.088Z,40.62
2023-02-04T09:47:24.124Z,39.49
2023-02-04T09:49:51.496Z,40.52
2023-02-04T09:52:18.737Z,40.48
2023-02-04T09:54:46.291Z,39.31
2023-02-04T09:57:19.926Z,40.47
2023-02-04T09:59:47.418Z,40.02
2023-02-04T10:02:21.762Z,42.79
2023-02-04T10:04:49.272Z,42.76
2023-02-04T10:07:17.146Z,42.42
2023-02-04T10:09:44.446Z,44.74
2023-02-04T10:12:11.897Z,46.46
2023-02-04T10:14:40.328Z,46.38
2023-02-04T10:17:08.560Z,46.91
2023-02-04T10:19:36.579Z,48.08
2023-02-04T10:22:03.789Z,47.40
2023-02-04T10:24:31.287Z,48.08
2023-02-04T10:27:08.936Z,48.26
2023-02-04T10:29:36.158Z,47.16
2023-02-04T10:32:03.890Z,48.71
2023-02-04T10:34:35.482Z,49.76
2023-02-04T10:37:11.691Z,50.65
2023-02-04T10:39:42.377Z,50.47
2023-02-04T10:42:21.791Z,50.63
2023-02-04T10:44:49.341Z,50.38
2023-02-04T10:47:17.008Z,50.75
2023-02-04T10:49:53.493Z,50.80
2023-02-04T10:52:21.644Z,49.84
2023-02-04T10:54:48.882Z,48.89
2023-02-04T10:57:24.080Z,48.36
2023-02-04T10:59:53.238Z,47.77
2023-02-04T11:02:29.205Z,47.58
2023-02-04T11:04:56.665Z,48.41
2023-02-04T11:07:23.935Z,48.52
2023-02-04T11:09:51.115Z,48.55
2023-02-04T11:12:22.525Z,49.14
2023-02-04T11:14:58.834Z,48.55
2023-02-04T11:17:30.471Z,47.91
2023-02-04T11:19:57.833Z,47.57
2023-02-04T11:22:37.060Z,47.38
2023-02-04T11:25:04.579Z,46.76
2023-02-04T11:27:38.740Z,46.61
2023-02-04T11:30:26.538Z,45.31
2023-02-04T11:33:00.774Z,44.85
2023-02-04T11:35:28.883Z,45.44
2023-02-04T11:37:56.156Z,45.06
2023-02-04T11:40:34.475Z,45.22
2023-02-04T11:43:15.224Z,46.08
2023-02-04T11:45:42.667Z,46.49
2023-02-04T11:48:14.021Z,46.98
2023-02-04T11:50:41.927Z,47.12
2023-02-04T11:53:12.290Z,46.17
2023-02-04T11:55:47.520Z,46.81
2023-02-04T11:58:15.871Z,45.74
2023-02-04T12:00:43.132Z,46.57
2023-02-04T12:03:24.438Z,46.79
2023-02-04T12:05:51.889Z,46.02
2023-02-04T12:08:22.153Z,45.69
2023-02-04T12:10:49.334Z,46.10
2023-02-04T12:13:17.686Z,45.14
2023-02-04T12:15:52.526Z,44.62
2023-02-04T12:18:19.758Z,45.34
2023-02-04T12:20:47.234Z,45.49
2023-02-04T12:23:14.468Z,45.31
2023-02-04T12:25:41.662Z,45.27
2023-02-04T12:28:09.194Z,45.72
2023-02-04T12:30:37.483Z,45.46
2023-02-04T12:33:04.689Z,45.27
2023-02-04T12:35:32.489Z,45.63
2023-02-04T12:37:59.848Z,45.93
2023-02-04T12:40:27.076Z,43.88
2023-02-04T12:42:54.555Z,43.50
2023-02-04T12:45:21.788Z,43.89
2023-02-04T12:47:48.945Z,43.18
2023-02-04T12:50:22.612Z,43.80
2023-02-04T12:52:53.839Z,45.35
2023-02-04T12:55:21.616Z,43.10
2023-02-04T12:57:48.817Z,42.98
2023-02-04T13:00:17.991Z,42.41
2023-02-04T13:02:45.624Z,42.35
2023-02-04T13:05:13.258Z,42.60
2023-02-04T13:07:40.966Z,44.27
2023-02-04T13:10:09.105Z,44.68
2023-02-04T13:12:36.531Z,44.68
2023-02-04T13:15:04.207Z,44.55
2023-02-04T13:17:31.808Z,44.21
2023-02-04T13:19:59.020Z,45.65
2023-02-04T13:22:26.391Z,44.97
2023-02-04T13:24:53.832Z,45.42
2023-02-04T13:27:21.073Z,44.14
2023-02-04T13:29:48.292Z,43.60
2023-02-04T13:32:16.006Z,42.71
2023-02-04T13:34:43.243Z,44.36
2023-02-04T13:37:10.536Z,43.41
2023-02-04T13:39:37.964Z,43.89
2023-02-04T13:42:05.192Z,43.72
2023-02-04T13:44:32.985Z,40.99
2023-02-04T13:47:00.434Z,40.15
2023-02-04T13:49:27.713Z,40.29
2023-02-04T13:51:54.844Z,41.31
2023-02-04T13:54:22.259Z,38.26
2023-02-04T13:56:49.454Z,39.38
2023-02-04T13:59:16.634Z,38.49
2023-02-04T14:01:44.268Z,38.48
2023-02-04T14:04:11.814Z,37.73
2023-02-04T14:06:43.528Z,38.11
2023-02-04T14:09:12.127Z,37.89
2023-02-04T14:11:39.683Z,39.94
2023-02-04T14:14:07.247Z,41.08
2023-02-04T14:16:36.357Z,42.37
2023-02-04T14:19:05.609Z,40.62
2023-02-04T14:21:33.138Z,41.65
2023-02-04T14:24:01.020Z,41.70
2023-02-04T14:26:28.520Z,41.67
2023-02-04T14:28:55.746Z,41.24
2023-02-04T14:31:23.005Z,40.87
2023-02-04T14:33:50.590Z,41.05
2023-02-04T14:36:17.816Z,39.24
2023-02-04T14:38:45.002Z,40.86
2023-02-04T14:41:16.375Z,39.97
2023-02-04T14:43:43.658Z,40.01
2023-02-04T14:46:10.841Z,40.84
2023-02-04T14:48:38.429Z,41.62
2023-02-04T14:51:05.824Z,41.99
2023-02-04T14:53:33.050Z,40.12
2023-02-04T14:56:00.578Z,41.75
2023-02-04T14:58:28.166Z,40.52
2023-02-04T15:00:55.723Z,41.46
2023-02-04T15:03:23.446Z,43.79
2023-02-04T15:05:50.638Z,42.57
2023-02-04T15:08:17.843Z,45.69
2023-02-04T15:10:45.535Z,44.24
2023-02-04T15:13:12.863Z,44.05
2023-02-04T15:15:40.103Z,44.88
2023-02-04T15:18:07.628Z,45.45
2023-02-04T15:20:35.086Z,45.38
2023-02-04T15:23:02.437Z,44.21
2023-02-04T15:25:48.707Z,44.83
2023-02-04T15:28:15.951Z,45.21
2023-02-04T15:30:43.442Z,45.99
2023-02-04T15:33:13.017Z,45.31
2023-02-04T15:35:40.206Z,45.53
2023-02-04T15:38:07.675Z,46.87
2023-02-04T15:40:35.197Z,46.47
2023-02-04T15:43:02.549Z,46.88
2023-02-04T15:45:29.969Z,47.32
2023-02-04T15:47:57.319Z,46.26
2023-02-04T15:50:24.436Z,46.88
2023-02-04T15:52:52.003Z,48.17
2023-02-04T15:55:19.228Z,47.68
2023-02-04T15:57:46.488Z,46.31
2023-02-04T16:00:14.245Z,47.03
2023-02-04T16:02:41.803Z,47.16
2023-02-04T16:05:09.179Z,46.60
2023-02-04T16:07:36.462Z,46.10
2023-02-04T16:10:04.282Z,45.66
2023-02-04T16:12:31.630Z,47.67
2023-02-04T16:14:58.795Z,46.69
2023-02-04T16:17:26.244Z,45.66
2023-02-04T16:19:53.362Z,46.30
2023-02-04T16:22:20.513Z,45.97
2023-02-04T16:24:48.694Z,46.82
2023-02-04T16:27:17.249Z,46.77
2023-02-04T16:29:44.379Z,47.22
2023-02-04T16:32:12.210Z,45.27
2023-02-04T16:34:39.391Z,47.22
2023-02-04T16:37:06.622Z,45.57
2023-02-04T16:39:34.179Z,45.01
2023-02-04T16:42:01.473Z,43.92
2023-02-04T16:44:28.843Z,44.99
2023-02-04T16:46:56.335Z,44.01
2023-02-04T16:49:23.528Z,45.44
2023-02-04T16:51:50.649Z,44.89
2023-02-04T16:54:18.155Z,44.64
2023-02-04T16:56:45.317Z,45.19
2023-02-04T16:59:12.547Z,44.92
2023-02-04T17:01:40.043Z,45.62
2023-02-04T17:04:07.400Z,46.29
2023-02-04T17:06:35.815Z,46.48
2023-02-04T17:09:03.354Z,46.68
2023-02-04T17:11:31.539Z,44.87
2023-02-04T17:13:59.455Z,46.84
2023-02-04T17:16:28.479Z,43.84
2023-02-04T17:18:55.727Z,44.56
2023-02-04T17:21:23.542Z,41.98
2023-02-04T17:23:51.244Z,43.74
2023-02-04T17:26:18.606Z,45.96
2023-02-04T17:28:46.096Z,43.77
2023-02-04T17:31:13.835Z,41.21
2023-02-04T17:33:41.231Z,43.80
2023-02-04T17:36:08.710Z,45.18
2023-02-04T17:38:36.420Z,41.58
2023-02-04T17:41:03.945Z,42.28
2023-02-04T17:43:31.091Z,42.36
2023-02-04T17:45:58.571Z,42.54
2023-02-04T17:48:25.854Z,42.52
2023-02-04T17:50:53.443Z,41.04
2023-02-04T17:53:20.953Z,44.96
2023-02-04T17:55:48.138Z,44.38
2023-02-04T17:58:16.415Z,42.16
2023-02-04T18:00:45.042Z,43.51
2023-02-04T18:03:13.844Z,46.63
2023-02-04T18:05:45.813Z,43.35
2023-02-04T18:08:18.738Z,45.42
2023-02-04T18:10:46.754Z,44.66
2023-02-04T18:13:14.368Z,44.71
2023-02-04T18:15:43.049Z,43.94
2023-02-04T18:18:29.133Z,42.49
2023-02-04T18:21:00.455Z,44.51
2023-02-04T18:23:28.646Z,42.60
2023-02-04T18:25:56.283Z,43.66
2023-02-04T18:28:23.871Z,39.77
2023-02-04T18:30:51.801Z,37.78
2023-02-04T18:33:24.383Z,40.53
2023-02-04T18:35:52.334Z,38.05
2023-02-04T18:38:21.356Z,37.82
2023-02-04T18:40:49.526Z,40.45
2023-02-04T18:43:24.726Z,38.45
2023-02-04T18:45:52.536Z,37.54
2023-02-04T18:48:19.908Z,37.76
2023-02-04T18:50:48.286Z,37.77
2023-02-04T18:53:16.174Z,39.56
2023-02-04T18:55:44.620Z,43.05
2023-02-04T18:58:31.859Z,38.46
2023-02-04T19:01:03.269Z,38.75
2023-02-04T19:03:31.823Z,38.88
2023-02-04T19:06:00.351Z,37.67
2023-02-04T19:08:43.782Z,39.50
2023-02-04T19:11:26.641Z,40.66
2023-02-04T19:13:54.650Z,40.04
2023-02-04T19:16:42.602Z,39.47
2023-02-04T19:19:28.573Z,40.17
2023-02-04T19:21:56.226Z,39.61
2023-02-04T19:24:24.460Z,39.64
2023-02-04T19:26:58.697Z,42.15
2023-02-04T19:29:39.402Z,40.55
2023-02-04T19:32:25.920Z,42.60
2023-02-04T19:34:53.617Z,42.96
2023-02-04T19:37:23.953Z,43.69
2023-02-04T19:39:51.499Z,44.48
2023-02-04T19:42:22.296Z,44.64
2023-02-04T19:44:50.026Z,45.50
2023-02-04T19:47:20.657Z,45.83
2023-02-04T19:49:48.340Z,44.89
2023-02-04T19:52:29.602Z,45.43
2023-02-04T19:55:20.593Z,46.26
2023-02-04T19:57:51.796Z,45.46
2023-02-04T20:00:23.014Z,47.90
2023-02-04T20:02:50.681Z,47.11
2023-02-04T20:05:19.038Z,46.52
2023-02-04T20:07:46.549Z,44.95
2023-02-04T20:10:24.797Z,45.46
2023-02-04T20:12:55.314Z,43.33
2023-02-04T20:15:25.696Z,43.58
2023-02-04T20:17:53.700Z,44.41
2023-02-04T20:20:26.303Z,44.38
2023-02-04T20:22:53.903Z,43.95
2023-02-04T20:25:21.712Z,45.52
2023-02-04T20:27:55.154Z,46.95
2023-02-04T20:30:26.450Z,47.53
2023-02-04T20:32:54.784Z,46.99
2023-02-04T20:35:22.351Z,48.95
2023-02-04T20:37:51.004Z,48.24
2023-02-04T20:40:18.279Z,48.13
2023-02-04T20:42:46.201Z,50.31
2023-02-04T20:45:22.890Z,47.48
2023-02-04T20:47:51.669Z,46.73
2023-02-04T20:50:28.465Z,47.23
2023-02-04T20:53:01.754Z,46.89
2023-02-04T20:55:29.963Z,48.02
2023-02-04T20:58:16.868Z,46.88
2023-02-04T21:00:44.842Z,46.30
2023-02-04T21:03:23.043Z,47.66
2023-02-04T21:05:51.311Z,48.74
2023-02-04T21:08:25.345Z,46.61
2023-02-04T21:10:52.864Z,48.13
2023-02-04T21:13:20.273Z,50.52
2023-02-04T21:15:47.795Z,48.26
2023-02-04T21:18:15.351Z,49.01
2023-02-04T21:20:42.488Z,48.60
2023-02-04T21:23:09.694Z,49.46
2023-02-04T21:25:37.859Z,49.99
2023-02-04T21:28:06.265Z,48.78
2023-02-04T21:30:33.538Z,50.24
2023-02-04T21:33:01.857Z,51.47
2023-02-04T21:35:29.042Z,51.10
2023-02-04T21:37:59.888Z,49.53
2023-02-04T21:40:27.830Z,48.65
2023-02-04T21:42:55.415Z,46.77
2023-02-04T21:45:23.385Z,47.48
2023-02-04T21:47:51.513Z,48.86
2023-02-04T21:50:19.653Z,47.42
2023-02-04T21:52:47.007Z,45.04
2023-02-04T21:55:15.717Z,45.96
2023-02-04T21:57:42.920Z,46.72
2023-02-04T22:00:10.374Z,47.08
2023-02-04T22:02:38.005Z,45.96
2023-02-04T22:05:07.671Z,48.51
2023-02-04T22:07:35.391Z,46.66
2023-02-04T22:10:03.647Z,50.24
2023-02-04T22:12:30.872Z,46.16
2023-02-04T22:15:16.877Z,46.36
2023-02-04T22:17:44.637Z,47.99
2023-02-04T22:20:12.195Z,49.81
2023-02-04T22:22:39.387Z,51.01
2023-02-04T22:25:07.059Z,47.97
2023-02-04T22:27:34.242Z,47.65
2023-02-04T22:30:03.252Z,51.02
2023-02-04T22:32:30.824Z,49.70
2023-02-04T22:34:58.017Z,48.47
2023-02-04T22:37:25.223Z,49.15
2023-02-04T22:39:52.696Z,48.61
2023-02-04T22:42:19.915Z,49.02
2023-02-04T22:44:47.288Z,48.29
2023-02-04T22:47:14.779Z,49.05
2023-02-04T22:49:41.941Z,47.75
2023-02-04T22:52:09.127Z,49.69
2023-02-04T22:54:37.849Z,48.85
2023-02-04T22:57:05.017Z,48.54
2023-02-04T22:59:32.160Z,48.37
2023-02-04T23:01:59.666Z,48.28
2023-02-04T23:04:26.852Z,47.99
2023-02-04T23:06:54.086Z,48.69
2023-02-04T23:09:21.534Z,48.64
2023-02-04T23:11:49.629Z,48.38
2023-02-04T23:14:16.752Z,49.79
2023-02-04T23:16:44.282Z,47.76
2023-02-04T23:19:11.419Z,47.42
2023-02-04T23:21:38.564Z,48.20
2023-02-04T23:24:06.172Z,48.61
2023-02-04T23:26:33.289Z,48.14
2023-02-04T23:29:01.191Z,46.98
2023-02-04T23:31:28.823Z,48.56
2023-02-04T23:33:55.974Z,48.00
2023-02-04T23:36:23.188Z,49.01
2023-02-04T23:38:50.683Z,46.97
2023-02-04T23:41:17.903Z,49.99
2023-02-04T23:43:45.080Z,46.79
2023-02-04T23:46:12.583Z,48.02
2023-02-04T23:48:39.757Z,47.09
2023-02-04T23:51:07.184Z,49.23
2023-02-04T23:53:34.686Z,47.58
2023-02-04T23:56:01.878Z,48.01
2023-02-04T23:58:29.031Z,48.29
